createdAt,value
2022-08-27T00:00:58.289Z,10.99
2022-08-27T00:02:01.093Z,11.63
2022-08-27T00:03:05.135Z,10.64
2022-08-27T00:04:10.095Z,12.92
2022-08-27T00:05:14.848Z,15.37
2022-08-27T00:06:22.285Z,11.32
2022-08-27T00:07:24.977Z,10.79
2022-08-27T00:08:27.652Z,15.08
2022-08-27T00:09:33.049Z,10.52
2022-08-27T00:10:38.454Z,14.17
2022-08-27T00:11:41.443Z,11.58
2022-08-27T00:12:47.731Z,13.21
2022-08-27T00:13:50.374Z,12.03
2022-08-27T00:14:56.318Z,14.83
2022-08-27T00:16:00.552Z,13.18
2022-08-27T00:17:04.635Z,11.53
2022-08-27T00:18:07.438Z,12.08
2022-08-27T00:19:09.992Z,11.57
2022-08-27T00:20:15.160Z,14.68
2022-08-27T00:21:18.026Z,14.16
2022-08-27T00:22:20.659Z,12.75
2022-08-27T00:23:23.049Z,12.70
2022-08-27T00:24:27.131Z,15.20
2022-08-27T00:25:29.795Z,10.43
2022-08-27T00:26:32.902Z,12.06
2022-08-27T00:27:35.319Z,11.55
2022-08-27T00:28:37.897Z,11.55
2022-08-27T00:29:40.388Z,9.14
2022-08-27T00:30:43.694Z,10.64
2022-08-27T00:31:46.600Z,15.01
2022-08-27T00:32:50.674Z,13.60
2022-08-27T00:33:53.154Z,13.25
2022-08-27T00:34:56.044Z,13.59
2022-08-27T00:35:59.674Z,10.00
2022-08-27T00:37:03.941Z,12.26
2022-08-27T00:38:11.859Z,10.15
2022-08-27T00:39:14.661Z,8.70
2022-08-27T00:40:20.724Z,11.72
2022-08-27T00:41:23.497Z,9.05
2022-08-27T00:42:31.059Z,12.15
2022-08-27T00:43:48.580Z,11.20
2022-08-27T00:44:51.383Z,16.92
2022-08-27T00:45:57.438Z,10.00
2022-08-27T00:47:05.114Z,8.15
2022-08-27T00:48:10.146Z,9.50
2022-08-27T00:50:55.044Z,10.61
2022-08-27T00:52:04.133Z,8.53
2022-08-27T00:53:21.815Z,8.68
2022-08-27T00:54:26.394Z,9.32
2022-08-27T00:55:32.360Z,9.94
2022-08-27T00:56:40.317Z,8.77
2022-08-27T00:57:43.538Z,8.97
2022-08-27T00:58:49.356Z,10.01
2022-08-27T00:59:51.892Z,10.58
2022-08-27T01:00:55.031Z,10.26
2022-08-27T01:01:59.180Z,8.44
2022-08-27T01:03:02.066Z,8.95
2022-08-27T01:04:05.167Z,8.51
2022-08-27T01:05:13.341Z,10.21
2022-08-27T01:06:20.186Z,8.29
2022-08-27T01:07:25.079Z,8.69
2022-08-27T01:08:33.074Z,10.06
2022-08-27T01:09:37.064Z,10.27
2022-08-27T01:10:41.511Z,9.62
2022-08-27T01:11:46.380Z,14.08
2022-08-27T01:12:53.798Z,10.29
2022-08-27T01:14:00.831Z,10.18
2022-08-27T01:15:00.743Z,11.82
2022-08-27T01:16:05.309Z,13.28
2022-08-27T01:17:09.733Z,9.01
2022-08-27T01:18:13.462Z,10.72
2022-08-27T01:19:28.338Z,10.13
2022-08-27T01:20:43.737Z,11.74
2022-08-27T01:21:52.914Z,10.37
2022-08-27T01:23:24.448Z,11.15
2022-08-27T01:24:47.656Z,9.82
2022-08-27T01:25:51.695Z,11.17
2022-08-27T01:26:54.989Z,8.07
2022-08-27T01:27:59.044Z,6.56
2022-08-27T01:29:02.562Z,11.19
2022-08-27T01:30:07.007Z,9.49
2022-08-27T01:31:11.489Z,10.64
2022-08-27T01:32:17.869Z,11.54
2022-08-27T01:33:21.372Z,12.25
2022-08-27T01:34:23.657Z,13.69
2022-08-27T01:35:26.471Z,9.95
2022-08-27T01:36:30.606Z,9.06
2022-08-27T01:37:33.200Z,12.03
2022-08-27T01:38:35.809Z,7.93
2022-08-27T01:39:40.741Z,9.63
2022-08-27T01:40:44.080Z,10.14
2022-08-27T01:41:48.433Z,12.71
2022-08-27T01:42:55.238Z,9.16
2022-08-27T01:43:57.662Z,10.78
2022-08-27T01:45:05.916Z,11.15
2022-08-27T01:46:09.104Z,12.56
2022-08-27T01:47:11.932Z,9.86
2022-08-27T01:48:16.031Z,10.08
2022-08-27T01:49:18.522Z,9.09
2022-08-27T01:50:25.452Z,10.68
2022-08-27T01:51:28.351Z,11.08
2022-08-27T01:52:30.751Z,8.95
2022-08-27T01:53:33.767Z,11.15
2022-08-27T01:54:36.657Z,9.76
2022-08-27T01:55:41.728Z,9.40
2022-08-27T01:56:46.288Z,11.27
2022-08-27T01:57:49.067Z,11.44
2022-08-27T01:58:51.570Z,8.84
2022-08-27T01:59:54.753Z,12.67
2022-08-27T02:01:03.574Z,10.16
2022-08-27T02:02:08.005Z,10.03
2022-08-27T02:03:12.084Z,10.32
2022-08-27T02:04:14.464Z,12.01
2022-08-27T02:05:17.625Z,11.05
2022-08-27T02:06:21.983Z,10.55
2022-08-27T02:07:24.565Z,10.46
2022-08-27T02:08:27.043Z,11.13
2022-08-27T02:09:29.165Z,10.86
2022-08-27T02:10:35.340Z,11.99
2022-08-27T02:11:44.710Z,9.94
2022-08-27T02:12:42.140Z,9.56
2022-08-27T02:13:44.470Z,9.75
2022-08-27T02:14:46.764Z,9.04
2022-08-27T02:15:49.317Z,8.71
2022-08-27T02:16:53.080Z,11.02
2022-08-27T02:17:55.893Z,8.93
2022-08-27T02:18:59.916Z,10.14
2022-08-27T02:20:03.752Z,11.21
2022-08-27T02:21:06.306Z,9.19
2022-08-27T02:22:08.766Z,11.38
2022-08-27T02:23:12.166Z,12.09
2022-08-27T02:24:14.557Z,12.39
2022-08-27T02:25:17.186Z,11.67
2022-08-27T02:26:20.567Z,10.13
2022-08-27T02:27:22.960Z,16.88
2022-08-27T02:28:25.418Z,12.79
2022-08-27T02:29:27.874Z,9.27
2022-08-27T02:30:32.620Z,10.59
2022-08-27T02:31:35.461Z,9.71
2022-08-27T02:32:38.228Z,11.71
2022-08-27T02:33:40.595Z,8.52
2022-08-27T02:34:43.302Z,12.48
2022-08-27T02:35:45.690Z,11.11
2022-08-27T02:36:48.290Z,10.80
2022-08-27T02:37:51.709Z,11.39
2022-08-27T02:38:54.201Z,9.46
2022-08-27T02:39:58.501Z,13.28
2022-08-27T02:41:02.279Z,10.13
2022-08-27T02:42:05.213Z,9.31
2022-08-27T02:43:08.205Z,10.74
2022-08-27T02:44:11.158Z,9.51
2022-08-27T02:45:17.187Z,11.85
2022-08-27T02:46:20.557Z,9.26
2022-08-27T02:47:23.310Z,10.94
2022-08-27T02:48:25.962Z,9.61
2022-08-27T02:49:29.645Z,10.11
2022-08-27T02:50:32.552Z,11.33
2022-08-27T02:51:36.518Z,9.27
2022-08-27T02:52:38.786Z,9.33
2022-08-27T02:53:41.363Z,12.65
2022-08-27T02:54:44.380Z,11.21
2022-08-27T02:55:47.472Z,11.71
2022-08-27T02:56:51.819Z,9.61
2022-08-27T02:57:54.620Z,11.69
2022-08-27T02:58:57.217Z,9.96
2022-08-27T02:59:59.620Z,10.31
2022-08-27T03:01:02.487Z,11.63
2022-08-27T03:02:05.049Z,9.86
2022-08-27T03:03:09.736Z,11.61
2022-08-27T03:04:13.832Z,10.39
2022-08-27T03:05:17.948Z,11.15
2022-08-27T03:06:20.996Z,11.72
2022-08-27T03:07:23.480Z,12.90
2022-08-27T03:08:27.375Z,10.11
2022-08-27T03:09:31.830Z,12.82
2022-08-27T03:10:34.430Z,10.18
2022-08-27T03:11:36.914Z,13.91
2022-08-27T03:12:40.460Z,11.68
2022-08-27T03:13:42.935Z,13.55
2022-08-27T03:14:45.431Z,10.53
2022-08-27T03:15:48.149Z,9.47
2022-08-27T03:16:52.429Z,12.58
2022-08-27T03:17:54.765Z,11.83
2022-08-27T03:18:57.463Z,12.46
2022-08-27T03:20:00.370Z,9.46
2022-08-27T03:21:02.932Z,11.92
2022-08-27T03:22:05.364Z,10.75
2022-08-27T03:23:12.379Z,9.76
2022-08-27T03:24:14.918Z,9.04
2022-08-27T03:25:17.774Z,10.01
2022-08-27T03:26:20.803Z,12.86
2022-08-27T03:27:24.767Z,13.04
2022-08-27T03:28:30.807Z,9.59
2022-08-27T03:29:35.503Z,11.51
2022-08-27T03:30:38.462Z,10.39
2022-08-27T03:31:40.948Z,12.87
2022-08-27T03:32:43.681Z,9.51
2022-08-27T03:33:46.260Z,10.32
2022-08-27T03:34:48.766Z,10.83
2022-08-27T03:35:52.239Z,12.70
2022-08-27T03:36:54.974Z,10.65
2022-08-27T03:37:57.470Z,11.42
2022-08-27T03:39:00.008Z,11.21
2022-08-27T03:40:04.531Z,12.03
2022-08-27T03:41:07.216Z,13.87
2022-08-27T03:42:09.607Z,13.05
2022-08-27T03:43:13.840Z,14.58
2022-08-27T03:44:21.463Z,12.32
2022-08-27T03:45:20.887Z,10.43
2022-08-27T03:46:25.055Z,10.40
2022-08-27T03:47:27.726Z,9.51
2022-08-27T03:48:31.917Z,11.59
2022-08-27T03:49:35.081Z,11.76
2022-08-27T03:50:42.825Z,13.61
2022-08-27T03:51:45.457Z,9.49
2022-08-27T03:52:48.119Z,12.42
2022-08-27T03:53:51.119Z,9.11
2022-08-27T03:54:53.409Z,12.44
2022-08-27T03:55:55.817Z,12.68
2022-08-27T03:56:58.708Z,10.85
2022-08-27T03:58:01.202Z,9.57
2022-08-27T03:59:04.031Z,10.73
2022-08-27T04:00:08.956Z,10.11
2022-08-27T04:01:11.667Z,12.85
2022-08-27T04:02:14.960Z,12.13
2022-08-27T04:03:17.785Z,12.96
2022-08-27T04:04:20.585Z,14.05
2022-08-27T04:05:23.394Z,12.73
2022-08-27T04:06:27.798Z,11.51
2022-08-27T04:07:30.434Z,11.48
2022-08-27T04:08:32.725Z,10.23
2022-08-27T04:09:35.629Z,12.35
2022-08-27T04:10:41.495Z,11.40
2022-08-27T04:11:44.005Z,11.54
2022-08-27T04:12:46.501Z,12.63
2022-08-27T04:13:49.204Z,10.87
2022-08-27T04:14:51.643Z,15.06
2022-08-27T04:15:54.438Z,13.35
2022-08-27T04:16:58.025Z,11.14
2022-08-27T04:18:00.432Z,10.72
2022-08-27T04:19:04.876Z,10.85
2022-08-27T04:20:34.201Z,10.72
2022-08-27T04:21:14.638Z,12.17
2022-08-27T04:22:17.184Z,14.13
2022-08-27T04:23:19.922Z,13.36
2022-08-27T04:24:22.488Z,12.37
2022-08-27T04:25:24.953Z,10.37
2022-08-27T04:26:28.280Z,11.78
2022-08-27T04:27:30.581Z,11.26
2022-08-27T04:28:38.265Z,12.45
2022-08-27T04:29:38.133Z,12.26
2022-08-27T04:30:44.868Z,9.90
2022-08-27T04:31:47.761Z,10.97
2022-08-27T04:32:50.142Z,9.56
2022-08-27T04:33:52.732Z,13.22
2022-08-27T04:34:56.491Z,13.64
2022-08-27T04:36:02.037Z,10.32
2022-08-27T04:37:04.736Z,10.89
2022-08-27T04:38:07.161Z,12.73
2022-08-27T04:39:09.622Z,9.51
2022-08-27T04:40:12.558Z,11.39
2022-08-27T04:41:15.228Z,12.91
2022-08-27T04:42:19.033Z,10.57
2022-08-27T04:43:21.866Z,13.24
2022-08-27T04:44:29.563Z,13.16
2022-08-27T04:45:31.993Z,9.89
2022-08-27T04:46:39.107Z,10.81
2022-08-27T04:47:41.726Z,11.96
2022-08-27T04:48:43.920Z,13.27
2022-08-27T04:49:46.907Z,9.36
2022-08-27T04:50:50.224Z,9.68
2022-08-27T04:51:53.667Z,9.70
2022-08-27T04:52:56.239Z,14.53
2022-08-27T04:54:00.883Z,12.32
2022-08-27T04:55:03.590Z,12.59
2022-08-27T04:56:06.599Z,12.01
2022-08-27T04:57:10.942Z,12.52
2022-08-27T04:58:13.438Z,14.21
2022-08-27T04:59:18.710Z,12.64
2022-08-27T05:00:22.031Z,12.97
2022-08-27T05:01:28.066Z,12.88
2022-08-27T05:02:30.718Z,13.94
2022-08-27T05:03:34.036Z,11.62
2022-08-27T05:04:38.452Z,14.03
2022-08-27T05:05:42.699Z,12.09
2022-08-27T05:06:46.243Z,13.15
2022-08-27T05:07:48.375Z,13.09
2022-08-27T05:08:54.210Z,11.98
2022-08-27T05:09:56.569Z,11.82
2022-08-27T05:10:59.399Z,11.51
2022-08-27T05:12:02.928Z,11.26
2022-08-27T05:13:05.156Z,10.97
2022-08-27T05:14:09.771Z,15.09
2022-08-27T05:15:12.374Z,10.42
2022-08-27T05:16:19.160Z,10.55
2022-08-27T05:17:21.772Z,8.87
2022-08-27T05:18:24.344Z,10.62
2022-08-27T05:19:27.274Z,11.92
2022-08-27T05:20:31.103Z,11.08
2022-08-27T05:21:34.959Z,10.57
2022-08-27T05:22:37.742Z,11.64
2022-08-27T05:23:40.444Z,9.56
2022-08-27T05:24:45.021Z,11.37
2022-08-27T05:25:48.714Z,15.52
2022-08-27T05:26:52.031Z,10.48
2022-08-27T05:27:54.322Z,10.84
2022-08-27T05:28:58.727Z,9.12
2022-08-27T05:30:01.536Z,13.12
2022-08-27T05:31:07.518Z,9.75
2022-08-27T05:32:10.049Z,11.51
2022-08-27T05:33:15.321Z,15.37
2022-08-27T05:34:22.099Z,11.86
2022-08-27T05:35:22.474Z,12.29
2022-08-27T05:36:29.084Z,11.14
2022-08-27T05:37:32.043Z,12.33
2022-08-27T05:38:35.144Z,10.95
2022-08-27T05:39:37.893Z,8.71
2022-08-27T05:40:40.798Z,10.60
2022-08-27T05:41:43.408Z,12.51
2022-08-27T05:42:46.460Z,12.08
2022-08-27T05:43:51.183Z,12.20
2022-08-27T05:44:53.768Z,16.16
2022-08-27T05:45:56.610Z,9.23
2022-08-27T05:46:59.569Z,9.79
2022-08-27T05:48:02.578Z,10.28
2022-08-27T05:49:06.431Z,9.54
2022-08-27T05:50:09.723Z,11.56
2022-08-27T05:51:22.590Z,11.36
2022-08-27T05:52:22.760Z,18.82
2022-08-27T05:53:25.109Z,11.56
2022-08-27T05:54:27.453Z,11.18
2022-08-27T05:55:30.128Z,10.25
2022-08-27T05:56:36.000Z,8.78
2022-08-27T05:57:38.396Z,10.87
2022-08-27T05:58:41.684Z,12.81
2022-08-27T05:59:44.029Z,11.87
2022-08-27T06:00:46.918Z,11.92
2022-08-27T06:01:51.265Z,10.99
2022-08-27T06:02:54.155Z,12.39
2022-08-27T06:03:56.861Z,14.99
2022-08-27T06:04:59.382Z,11.64
2022-08-27T06:06:08.823Z,11.30
2022-08-27T06:07:11.126Z,11.64
2022-08-27T06:08:13.937Z,14.20
2022-08-27T06:09:19.963Z,11.90
2022-08-27T06:10:22.913Z,9.77
2022-08-27T06:11:25.631Z,9.37
2022-08-27T06:12:28.466Z,13.34
2022-08-27T06:13:32.669Z,13.13
2022-08-27T06:14:36.714Z,10.95
2022-08-27T06:15:39.651Z,9.42
2022-08-27T06:16:42.840Z,14.17
2022-08-27T06:17:47.577Z,18.54
2022-08-27T06:18:50.273Z,16.41
2022-08-27T06:19:52.887Z,12.62
2022-08-27T06:20:56.018Z,14.06
2022-08-27T06:22:00.679Z,13.49
2022-08-27T06:23:02.942Z,11.21
2022-08-27T06:24:06.267Z,10.22
2022-08-27T06:25:11.133Z,13.36
2022-08-27T06:26:16.685Z,12.69
2022-08-27T06:27:19.899Z,12.31
2022-08-27T06:28:23.502Z,13.93
2022-08-27T06:29:26.046Z,15.58
2022-08-27T06:30:28.725Z,15.64
2022-08-27T06:31:33.505Z,15.39
2022-08-27T06:32:36.334Z,19.04
2022-08-27T06:33:39.542Z,16.16
2022-08-27T06:34:41.830Z,15.60
2022-08-27T06:35:46.549Z,15.35
2022-08-27T06:36:49.077Z,13.42
2022-08-27T06:37:53.627Z,16.74
2022-08-27T06:38:56.851Z,13.73
2022-08-27T06:39:59.296Z,15.81
2022-08-27T06:41:07.283Z,21.23
2022-08-27T06:42:12.241Z,28.76
2022-08-27T06:43:14.838Z,20.96
2022-08-27T06:44:17.442Z,18.95
2022-08-27T06:45:20.134Z,30.53
2022-08-27T06:46:26.437Z,26.62
2022-08-27T06:47:32.125Z,23.63
2022-08-27T06:48:34.611Z,28.46
2022-08-27T06:49:39.340Z,27.94
2022-08-27T06:50:42.810Z,31.29
2022-08-27T06:51:47.454Z,26.35
2022-08-27T06:52:49.784Z,27.54
2022-08-27T06:53:58.490Z,25.00
2022-08-27T06:55:01.084Z,26.23
2022-08-27T06:56:03.991Z,34.78
2022-08-27T06:57:06.493Z,36.15
2022-08-27T06:58:08.957Z,23.43
2022-08-27T06:59:14.261Z,29.58
2022-08-27T07:00:18.108Z,35.93
2022-08-27T07:01:26.354Z,30.12
2022-08-27T07:02:32.019Z,30.78
2022-08-27T07:03:36.259Z,31.22
2022-08-27T07:04:38.740Z,36.74
2022-08-27T07:05:41.458Z,25.41
2022-08-27T07:06:45.307Z,28.08
2022-08-27T07:07:48.905Z,35.81
2022-08-27T07:08:53.490Z,36.98
2022-08-27T07:09:57.131Z,35.11
2022-08-27T07:10:59.894Z,30.94
2022-08-27T07:12:04.325Z,27.45
2022-08-27T07:13:06.949Z,24.63
2022-08-27T07:14:09.433Z,30.13
2022-08-27T07:15:11.952Z,20.15
2022-08-27T07:16:23.218Z,20.98
2022-08-27T07:17:25.716Z,15.93
2022-08-27T07:18:28.050Z,15.67
2022-08-27T07:19:30.349Z,19.71
2022-08-27T07:20:33.038Z,14.46
2022-08-27T07:21:37.592Z,18.99
2022-08-27T07:22:41.828Z,19.92
2022-08-27T07:23:49.780Z,22.42
2022-08-27T07:24:52.166Z,26.59
2022-08-27T07:25:54.554Z,20.77
2022-08-27T07:26:57.211Z,19.77
2022-08-27T07:28:00.163Z,19.60
2022-08-27T07:29:04.663Z,20.86
2022-08-27T07:30:10.618Z,19.72
2022-08-27T07:31:15.972Z,16.23
2022-08-27T07:32:18.372Z,20.75
2022-08-27T07:33:28.468Z,16.04
2022-08-27T07:34:30.839Z,19.49
2022-08-27T07:35:35.087Z,17.67
2022-08-27T07:36:38.919Z,21.99
2022-08-27T07:37:41.376Z,17.69
2022-08-27T07:38:43.605Z,26.33
2022-08-27T07:39:51.029Z,24.61
2022-08-27T07:40:55.625Z,16.34
2022-08-27T07:41:58.935Z,14.20
2022-08-27T07:43:01.494Z,15.01
2022-08-27T07:44:03.608Z,12.39
2022-08-27T07:45:07.605Z,14.51
2022-08-27T07:46:10.352Z,10.18
2022-08-27T07:47:12.813Z,9.47
2022-08-27T07:48:15.790Z,11.42
2022-08-27T07:50:29.948Z,14.48
2022-08-27T07:51:33.091Z,20.65
2022-08-27T07:52:35.975Z,13.46
2022-08-27T07:53:38.775Z,10.07
2022-08-27T07:54:41.409Z,10.17
2022-08-27T07:55:46.027Z,9.63
2022-08-27T07:56:55.511Z,6.12
2022-08-27T07:57:58.828Z,6.83
2022-08-27T07:59:04.020Z,11.31
2022-08-27T08:00:12.059Z,17.68
2022-08-27T08:01:18.054Z,10.84
2022-08-27T08:02:20.744Z,13.54
2022-08-27T08:03:25.453Z,14.43
2022-08-27T08:04:27.894Z,9.41
2022-08-27T08:05:30.607Z,10.08
2022-08-27T08:06:37.228Z,9.35
2022-08-27T08:07:39.860Z,9.36
2022-08-27T08:08:47.143Z,9.39
2022-08-27T08:09:50.233Z,11.75
2022-08-27T08:10:59.287Z,7.31
2022-08-27T08:12:05.801Z,10.22
2022-08-27T08:13:09.000Z,6.13
2022-08-27T08:14:11.908Z,10.88
2022-08-27T08:15:14.752Z,7.48
2022-08-27T08:16:18.118Z,7.33
2022-08-27T08:17:20.854Z,8.06
2022-08-27T08:18:23.405Z,8.65
2022-08-27T08:19:26.122Z,8.48
2022-08-27T08:20:54.150Z,17.32
2022-08-27T08:21:36.499Z,12.19
2022-08-27T08:22:39.387Z,9.91
2022-08-27T08:23:45.301Z,8.66
2022-08-27T08:24:47.822Z,8.39
2022-08-27T08:25:50.451Z,8.38
2022-08-27T08:26:53.017Z,6.15
2022-08-27T08:27:55.402Z,8.04
2022-08-27T08:28:58.072Z,7.97
2022-08-27T08:30:00.812Z,9.05
2022-08-27T08:31:05.105Z,12.25
2022-08-27T08:32:08.489Z,8.82
2022-08-27T08:33:11.094Z,12.23
2022-08-27T08:34:14.171Z,7.10
2022-08-27T08:35:18.275Z,9.19
2022-08-27T08:36:22.516Z,7.67
2022-08-27T08:37:26.053Z,10.43
2022-08-27T08:38:28.612Z,8.50
2022-08-27T08:39:32.761Z,7.60
2022-08-27T08:40:41.729Z,8.49
2022-08-27T08:43:02.563Z,5.22
2022-08-27T08:44:08.685Z,10.64
2022-08-27T08:45:17.453Z,15.66
2022-08-27T08:46:39.167Z,6.28
2022-08-27T08:47:57.488Z,10.92
2022-08-27T08:49:04.043Z,18.49
2022-08-27T08:50:20.092Z,11.49
2022-08-27T08:51:32.259Z,8.84
2022-08-27T08:52:46.524Z,7.47
2022-08-27T08:54:02.070Z,11.27
2022-08-27T08:55:14.312Z,12.22
2022-08-27T08:56:25.032Z,11.10
2022-08-27T08:57:34.357Z,7.63
2022-08-27T09:00:03.176Z,9.47
2022-08-27T09:01:10.388Z,7.94
2022-08-27T09:02:15.150Z,6.53
2022-08-27T09:03:20.491Z,7.96
2022-08-27T09:04:25.469Z,6.46
2022-08-27T09:05:28.427Z,8.41
2022-08-27T09:06:53.806Z,8.64
2022-08-27T09:08:34.221Z,7.96
2022-08-27T09:09:27.170Z,6.07
2022-08-27T09:10:54.122Z,9.22
2022-08-27T09:12:03.330Z,8.38
2022-08-27T09:13:09.197Z,6.85
2022-08-27T09:14:36.453Z,7.08
2022-08-27T09:15:40.902Z,6.89
2022-08-27T09:16:43.980Z,7.16
2022-08-27T09:17:46.715Z,11.44
2022-08-27T09:18:52.586Z,6.02
2022-08-27T09:19:55.558Z,9.48
2022-08-27T09:21:08.891Z,7.34
2022-08-27T09:22:37.409Z,6.35
2022-08-27T09:23:55.616Z,10.11
2022-08-27T09:25:10.647Z,8.54
2022-08-27T09:26:19.211Z,9.69
2022-08-27T09:27:26.204Z,9.25
2022-08-27T09:28:29.761Z,10.20
2022-08-27T09:29:32.142Z,11.39
2022-08-27T09:30:38.361Z,9.64
2022-08-27T09:31:43.298Z,17.63
2022-08-27T09:32:47.923Z,14.99
2022-08-27T09:33:56.511Z,12.42
2022-08-27T09:35:00.537Z,11.83
2022-08-27T09:36:06.537Z,16.74
2022-08-27T09:37:18.476Z,14.93
2022-08-27T09:38:27.138Z,15.67
2022-08-27T09:39:44.702Z,12.81
2022-08-27T09:40:51.236Z,14.32
2022-08-27T09:41:54.976Z,20.02
2022-08-27T09:43:06.933Z,12.46
2022-08-27T09:44:14.537Z,18.06
2022-08-27T09:45:20.868Z,35.33
2022-08-27T09:46:25.471Z,28.33
2022-08-27T09:47:29.854Z,24.37
2022-08-27T09:48:34.933Z,20.46
2022-08-27T09:49:37.419Z,11.79
2022-08-27T09:50:44.114Z,27.69
2022-08-27T09:51:47.653Z,16.26
2022-08-27T09:52:56.122Z,18.24
2022-08-27T09:54:02.722Z,21.57
2022-08-27T09:55:06.544Z,20.52
2022-08-27T09:56:12.765Z,14.21
2022-08-27T09:57:18.826Z,17.33
2022-08-27T09:58:46.302Z,25.27
2022-08-27T09:59:54.563Z,14.61
2022-08-27T10:01:19.182Z,19.98
2022-08-27T10:02:24.828Z,16.94
2022-08-27T10:03:31.372Z,14.03
2022-08-27T10:04:51.872Z,16.74
2022-08-27T10:05:56.969Z,21.72
2022-08-27T10:07:03.171Z,16.73
2022-08-27T10:08:12.340Z,15.58
2022-08-27T10:09:33.462Z,20.54
2022-08-27T10:10:55.884Z,25.63
2022-08-27T10:12:06.903Z,20.34
2022-08-27T10:13:16.047Z,12.84
2022-08-27T10:14:28.138Z,9.47
2022-08-27T10:15:49.742Z,18.15
2022-08-27T10:16:59.018Z,15.75
2022-08-27T10:18:14.401Z,15.17
2022-08-27T10:19:26.220Z,12.99
2022-08-27T10:20:44.440Z,23.17
2022-08-27T10:21:54.519Z,13.59
2022-08-27T10:23:09.877Z,32.08
2022-08-27T10:24:27.911Z,13.43
2022-08-27T10:25:47.301Z,13.87
2022-08-27T10:27:26.849Z,13.03
2022-08-27T10:29:04.909Z,10.00
2022-08-27T10:30:13.932Z,31.68
2022-08-27T10:31:20.205Z,23.28
2022-08-27T10:32:32.343Z,23.66
2022-08-27T10:34:03.467Z,20.21
2022-08-27T10:35:10.627Z,19.10
2022-08-27T10:36:36.182Z,18.71
2022-08-27T10:37:51.335Z,11.36
2022-08-27T10:39:25.402Z,16.62
2022-08-27T10:40:32.546Z,21.74
2022-08-27T10:41:42.043Z,19.23
2022-08-27T10:42:57.816Z,16.85
2022-08-27T10:44:04.025Z,21.04
2022-08-27T10:46:57.663Z,19.13
2022-08-27T10:48:09.833Z,10.92
2022-08-27T10:49:22.310Z,14.89
2022-08-27T10:50:44.234Z,20.34
2022-08-27T10:52:06.480Z,20.76
2022-08-27T10:53:13.893Z,35.17
2022-08-27T10:54:22.967Z,19.50
2022-08-27T10:55:31.832Z,20.27
2022-08-27T10:57:00.099Z,11.23
2022-08-27T10:58:16.353Z,13.15
2022-08-27T10:59:43.762Z,14.39
2022-08-27T11:01:08.422Z,20.61
2022-08-27T11:02:34.443Z,17.51
2022-08-27T11:03:58.908Z,13.91
2022-08-27T11:05:08.523Z,10.54
2022-08-27T11:07:37.515Z,19.66
2022-08-27T11:08:46.852Z,41.18
2022-08-27T11:09:58.947Z,22.59
2022-08-27T11:12:03.362Z,7.11
2022-08-27T11:12:29.728Z,15.96
2022-08-27T11:13:44.829Z,16.64
2022-08-27T11:14:50.796Z,9.22
2022-08-27T11:15:54.684Z,12.02
2022-08-27T11:18:44.388Z,14.68
2022-08-27T11:19:56.135Z,27.62
2022-08-27T11:21:08.908Z,15.54
2022-08-27T11:23:56.144Z,18.59
2022-08-27T11:25:23.715Z,11.70
2022-08-27T11:26:30.320Z,29.14
2022-08-27T11:27:34.459Z,37.54
2022-08-27T11:28:50.021Z,25.06
2022-08-27T11:30:00.234Z,19.32
2022-08-27T11:31:04.642Z,9.76
2022-08-27T11:32:19.692Z,16.24
2022-08-27T11:33:37.206Z,15.22
2022-08-27T11:34:52.214Z,15.94
2022-08-27T11:36:01.299Z,9.78
2022-08-27T11:37:35.150Z,9.66
2022-08-27T11:38:56.553Z,13.58
2022-08-27T11:40:05.484Z,13.93
2022-08-27T11:41:33.350Z,20.36
2022-08-27T11:42:53.327Z,13.34
2022-08-27T11:43:59.489Z,9.29
2022-08-27T11:45:24.075Z,6.69
2022-08-27T11:46:30.087Z,8.36
2022-08-27T11:47:32.800Z,6.07
2022-08-27T11:48:43.156Z,7.04
2022-08-27T11:49:52.159Z,8.09
2022-08-27T11:51:01.714Z,12.73
2022-08-27T11:52:08.884Z,7.06
2022-08-27T11:53:11.428Z,7.85
2022-08-27T11:54:29.594Z,7.52
2022-08-27T11:56:45.859Z,11.34
2022-08-27T11:57:51.632Z,15.72
2022-08-27T11:58:54.330Z,20.13
2022-08-27T11:59:57.350Z,12.40
2022-08-27T12:01:04.538Z,15.83
2022-08-27T12:02:25.145Z,14.76
2022-08-27T12:03:31.136Z,26.84
2022-08-27T12:04:37.469Z,29.63
2022-08-27T12:05:49.376Z,22.56
2022-08-27T12:07:17.264Z,16.02
2022-08-27T12:08:26.282Z,13.88
2022-08-27T12:09:31.496Z,8.61
2022-08-27T12:10:57.534Z,11.00
2022-08-27T12:12:09.707Z,12.06
2022-08-27T12:13:18.460Z,17.87
2022-08-27T12:14:30.736Z,23.49
2022-08-27T12:15:52.396Z,20.36
2022-08-27T12:17:26.300Z,47.16
2022-08-27T12:18:38.429Z,12.34
2022-08-27T12:20:18.297Z,10.13
2022-08-27T12:21:51.875Z,19.15
2022-08-27T12:24:38.590Z,28.12
2022-08-27T12:25:41.408Z,13.04
2022-08-27T12:26:56.542Z,15.85
2022-08-27T12:28:02.003Z,9.73
2022-08-27T12:29:27.713Z,9.70
2022-08-27T12:30:39.791Z,7.57
2022-08-27T12:31:48.042Z,19.79
2022-08-27T12:32:51.534Z,12.96
2022-08-27T12:33:54.364Z,18.06
2022-08-27T12:35:03.536Z,17.09
2022-08-27T12:36:17.505Z,9.93
2022-08-27T12:37:25.073Z,7.64
2022-08-27T12:38:33.759Z,4.56
2022-08-27T12:39:39.788Z,6.32
2022-08-27T12:40:52.211Z,10.13
2022-08-27T12:42:01.529Z,19.01
2022-08-27T12:43:10.743Z,8.93
2022-08-27T12:44:25.782Z,11.97
2022-08-27T12:45:28.373Z,8.01
2022-08-27T12:46:31.380Z,7.43
2022-08-27T12:47:37.371Z,4.11
2022-08-27T12:48:46.448Z,6.15
2022-08-27T12:50:01.381Z,5.62
2022-08-27T12:51:12.295Z,7.23
2022-08-27T12:52:27.950Z,12.33
2022-08-27T12:53:36.936Z,13.83
2022-08-27T12:55:02.348Z,5.79
2022-08-27T12:56:45.339Z,9.19
2022-08-27T12:58:15.337Z,13.39
2022-08-27T12:59:47.773Z,13.69
2022-08-27T13:01:07.302Z,10.81
2022-08-27T13:03:49.086Z,6.32
2022-08-27T13:04:52.228Z,5.91
2022-08-27T13:05:54.835Z,4.79
2022-08-27T13:06:57.365Z,5.87
2022-08-27T13:07:59.929Z,8.87
2022-08-27T13:09:07.964Z,4.89
2022-08-27T13:10:17.349Z,5.65
2022-08-27T13:11:23.235Z,5.19
2022-08-27T13:12:25.827Z,5.14
2022-08-27T13:13:28.426Z,5.03
2022-08-27T13:14:37.085Z,4.63
2022-08-27T13:15:48.758Z,6.69
2022-08-27T13:17:00.995Z,6.39
2022-08-27T13:18:05.701Z,4.31
2022-08-27T13:19:12.039Z,7.52
2022-08-27T13:20:18.342Z,5.74
2022-08-27T13:21:31.014Z,7.04
2022-08-27T13:22:39.381Z,11.72
2022-08-27T13:23:49.423Z,5.06
2022-08-27T13:24:54.956Z,4.86
2022-08-27T13:27:19.853Z,6.77
2022-08-27T13:28:25.760Z,6.33
2022-08-27T13:29:28.706Z,5.60
2022-08-27T13:30:36.159Z,8.73
2022-08-27T13:31:37.420Z,6.71
2022-08-27T13:32:42.380Z,6.74
2022-08-27T13:33:45.396Z,6.71
2022-08-27T13:34:48.783Z,7.97
2022-08-27T13:35:53.406Z,13.43
2022-08-27T13:36:59.352Z,5.12
2022-08-27T13:38:07.598Z,6.47
2022-08-27T13:39:13.867Z,8.42
2022-08-27T13:40:30.335Z,6.29
2022-08-27T13:41:36.203Z,4.03
2022-08-27T13:42:42.605Z,4.73
2022-08-27T13:43:47.535Z,5.54
2022-08-27T13:44:52.767Z,5.82
2022-08-27T13:45:55.935Z,7.31
2022-08-27T13:47:08.928Z,8.99
2022-08-27T13:49:20.078Z,6.48
2022-08-27T13:50:26.991Z,5.11
2022-08-27T13:51:32.663Z,7.64
2022-08-27T13:52:41.031Z,7.08
2022-08-27T13:53:47.381Z,8.23
2022-08-27T13:54:54.977Z,5.17
2022-08-27T13:55:59.759Z,5.61
2022-08-27T13:57:08.802Z,6.68
2022-08-27T13:58:14.656Z,5.82
2022-08-27T13:59:23.592Z,6.23
2022-08-27T14:00:32.724Z,5.76
2022-08-27T14:01:35.962Z,3.44
2022-08-27T14:02:40.900Z,5.95
2022-08-27T14:03:53.039Z,18.54
2022-08-27T14:05:17.022Z,5.41
2022-08-27T14:06:41.460Z,7.81
2022-08-27T14:07:49.754Z,6.49
2022-08-27T14:08:55.337Z,7.05
2022-08-27T14:10:20.598Z,7.14
2022-08-27T14:11:25.807Z,6.36
2022-08-27T14:12:34.405Z,8.49
2022-08-27T14:13:46.286Z,7.03
2022-08-27T14:14:49.016Z,4.82
2022-08-27T14:15:54.387Z,8.21
2022-08-27T14:17:00.281Z,4.96
2022-08-27T14:18:05.761Z,4.57
2022-08-27T14:19:23.983Z,7.47
2022-08-27T14:20:29.040Z,7.01
2022-08-27T14:21:32.866Z,6.54
2022-08-27T14:22:35.467Z,9.84
2022-08-27T14:23:38.175Z,5.36
2022-08-27T14:24:41.789Z,9.63
2022-08-27T14:25:44.834Z,7.92
2022-08-27T14:26:52.742Z,5.46
2022-08-27T14:27:57.191Z,8.36
2022-08-27T14:29:00.228Z,6.10
2022-08-27T14:30:05.051Z,5.82
2022-08-27T14:31:08.014Z,7.23
2022-08-27T14:32:12.011Z,8.18
2022-08-27T14:33:14.698Z,8.14
2022-08-27T14:34:19.424Z,7.97
2022-08-27T14:35:27.715Z,6.53
2022-08-27T14:36:32.463Z,7.59
2022-08-27T14:37:36.388Z,6.53
2022-08-27T14:38:41.662Z,6.14
2022-08-27T14:39:44.948Z,6.67
2022-08-27T14:40:51.507Z,8.17
2022-08-27T14:41:55.010Z,6.71
2022-08-27T14:42:57.815Z,7.31
2022-08-27T14:44:01.551Z,7.87
2022-08-27T14:45:06.081Z,7.29
2022-08-27T14:46:12.458Z,6.25